Wallis, Texas
Current Conditions -  °F | °C
As of 4:15 AM on Wednesday 26 Nov 2014 (Local Time) from KELA Reporting Station
Clear Clear  
Wind Chill: 43°   Ceiling: Unl
Heat Index: 46°   Visibility: 10mi
Dew Point: 40°   Wind: 7mph
Humidity: 78%   Direction: 220°SW
Pressure: 30.2"   Gusts: NA
Location:  29.63°N, 96.07°W
Report Text: KELA 261015Z AUTO 22006KT 10SM CLR 08/04 A3020 RMK AO2 T00800043
Loading
Personal Weather Stations






























Interactive Weather Map New forecast layout! Learn more

10-Day Weather Forecast

Advertisements
Track Severe Weather on mobile